createdAt,value
2023-01-23T00:00:27.617Z,93321.66
2023-01-23T00:01:59.798Z,93315.75
2023-01-23T00:03:31.880Z,93323.56
2023-01-23T00:05:03.549Z,93321.19
2023-01-23T00:06:35.291Z,93323.06
2023-01-23T00:08:07.615Z,93321.44
2023-01-23T00:09:41.943Z,93323.00
2023-01-23T00:11:18.626Z,93332.13
2023-01-23T00:12:51.478Z,93327.31
2023-01-23T00:14:23.034Z,93322.78
2023-01-23T00:15:54.643Z,93328.34
2023-01-23T00:17:27.567Z,93324.31
2023-01-23T00:19:00.421Z,93328.56
2023-01-23T00:20:32.865Z,93331.72
2023-01-23T00:22:04.719Z,93321.47
2023-01-23T00:23:36.547Z,93316.38
2023-01-23T00:25:08.368Z,93327.06
2023-01-23T00:26:39.919Z,93323.28
2023-01-23T00:28:11.476Z,93325.38
2023-01-23T00:29:44.045Z,93326.72
2023-01-23T00:31:17.468Z,93341.34
2023-01-23T00:32:49.205Z,93344.03
2023-01-23T00:34:20.853Z,93350.44
2023-01-23T00:35:54.707Z,93354.16
2023-01-23T00:37:26.565Z,93359.47
2023-01-23T00:38:58.209Z,93355.66
2023-01-23T00:40:29.864Z,93351.09
2023-01-23T00:42:01.361Z,93355.06
2023-01-23T00:43:33.665Z,93346.25
2023-01-23T00:45:06.140Z,93348.13
2023-01-23T00:46:39.050Z,93347.00
2023-01-23T00:48:10.608Z,93357.16
2023-01-23T00:49:42.428Z,93349.41
2023-01-23T00:51:15.574Z,93355.56
2023-01-23T00:52:47.175Z,93348.59
2023-01-23T00:54:20.290Z,93347.28
2023-01-23T00:55:51.783Z,93352.41
2023-01-23T00:57:23.368Z,93344.66
2023-01-23T00:58:55.621Z,93351.69
2023-01-23T01:00:27.239Z,93356.78
2023-01-23T01:01:58.778Z,93366.16
2023-01-23T01:03:30.520Z,93354.97
2023-01-23T01:05:02.315Z,93362.69
2023-01-23T01:06:33.930Z,93364.06
2023-01-23T01:08:05.613Z,93377.19
2023-01-23T01:09:37.126Z,93372.63
2023-01-23T01:11:08.652Z,93382.75
2023-01-23T01:12:40.212Z,93377.09
2023-01-23T01:14:11.880Z,93383.25
2023-01-23T01:15:43.643Z,93378.13
2023-01-23T01:17:15.216Z,93383.72
2023-01-23T01:18:46.929Z,93391.47
2023-01-23T01:20:18.804Z,93391.28
2023-01-23T01:21:53.561Z,93392.13
2023-01-23T01:23:25.381Z,93384.38
2023-01-23T01:24:57.586Z,93384.66
2023-01-23T01:26:29.164Z,93388.13
2023-01-23T01:28:00.720Z,93384.66
2023-01-23T01:29:33.315Z,93389.72
2023-01-23T01:31:06.300Z,93383.28
2023-01-23T01:32:39.985Z,93381.97
2023-01-23T01:34:11.476Z,93378.28
2023-01-23T01:35:43.096Z,93383.38
2023-01-23T01:37:14.652Z,93381.25
2023-01-23T01:38:46.135Z,93380.44
2023-01-23T01:40:20.245Z,93371.91
2023-01-23T01:41:52.067Z,93379.19
2023-01-23T01:43:24.634Z,93378.13
2023-01-23T01:44:57.197Z,93390.44
2023-01-23T01:46:29.655Z,93369.81
2023-01-23T01:48:01.368Z,93365.28
2023-01-23T01:49:33.147Z,93370.34
2023-01-23T01:51:06.823Z,93361.28
2023-01-23T01:52:38.332Z,93355.41
2023-01-23T01:54:30.228Z,93356.25
2023-01-23T01:56:01.784Z,93361.88
2023-01-23T01:57:34.829Z,93353.31
2023-01-23T01:59:06.396Z,93347.94
2023-01-23T02:00:37.962Z,93358.09
2023-01-23T02:02:13.408Z,93363.66
2023-01-23T02:03:45.945Z,93358.31
2023-01-23T02:05:19.017Z,93367.16
2023-01-23T02:06:51.988Z,93367.44
2023-01-23T02:08:25.038Z,93366.31
2023-01-23T02:09:56.766Z,93378.34
2023-01-23T02:11:28.355Z,93371.13
2023-01-23T02:13:18.352Z,93368.94
2023-01-23T02:14:50.034Z,93365.72
2023-01-23T02:16:21.998Z,93365.44
2023-01-23T02:17:53.445Z,93369.75
2023-01-23T02:19:37.113Z,93372.75
2023-01-23T02:21:08.769Z,93364.00
2023-01-23T02:22:53.821Z,93375.81
2023-01-23T02:24:45.067Z,93365.69
2023-01-23T02:26:17.528Z,93358.13
2023-01-23T02:27:49.156Z,93365.09
2023-01-23T02:29:21.049Z,93368.84
2023-01-23T02:30:53.056Z,93372.88
2023-01-23T02:32:24.819Z,93354.41
2023-01-23T02:33:56.811Z,93359.19
2023-01-23T02:35:29.072Z,93358.41
2023-01-23T02:37:00.966Z,93369.13
2023-01-23T02:38:36.931Z,93364.63
2023-01-23T02:40:08.912Z,93359.00
2023-01-23T02:42:02.045Z,93357.69
2023-01-23T02:43:35.404Z,93366.53
2023-01-23T02:45:07.187Z,93359.09
2023-01-23T02:46:38.910Z,93361.97
2023-01-23T02:48:10.704Z,93355.28
2023-01-23T02:49:42.901Z,93362.78
2023-01-23T02:51:14.874Z,93360.41
2023-01-23T02:52:47.383Z,93363.59
2023-01-23T02:54:19.255Z,93361.97
2023-01-23T02:55:50.833Z,93358.50
2023-01-23T02:57:22.508Z,93350.97
2023-01-23T02:59:12.579Z,93358.47
2023-01-23T03:00:44.112Z,93365.47
2023-01-23T03:02:15.917Z,93362.56
2023-01-23T03:03:47.560Z,93363.91
2023-01-23T03:05:19.975Z,93365.25
2023-01-23T03:06:51.510Z,93363.13
2023-01-23T03:08:23.317Z,93357.75
2023-01-23T03:09:54.899Z,93360.19
2023-01-23T03:11:27.462Z,93359.97
2023-01-23T03:13:02.206Z,93358.88
2023-01-23T03:14:34.965Z,93356.44
2023-01-23T03:16:07.096Z,93367.91
2023-01-23T03:17:38.640Z,93356.97
2023-01-23T03:19:10.664Z,93365.25
2023-01-23T03:20:42.306Z,93364.44
2023-01-23T03:22:14.977Z,93357.16
2023-01-23T03:23:48.003Z,93357.69
2023-01-23T03:25:20.311Z,93367.28
2023-01-23T03:26:52.148Z,93377.19
2023-01-23T03:28:42.445Z,93362.22
2023-01-23T03:30:15.855Z,93361.69
2023-01-23T03:31:47.546Z,93360.34
2023-01-23T03:33:19.196Z,93354.25
2023-01-23T03:34:50.997Z,93349.75
2023-01-23T03:36:22.500Z,93347.88
2023-01-23T03:37:54.727Z,93344.41
2023-01-23T03:39:45.011Z,93358.56
2023-01-23T03:41:25.625Z,93357.22
2023-01-23T03:42:57.145Z,93363.94
2023-01-23T03:44:28.918Z,93351.69
2023-01-23T03:46:00.495Z,93344.47
2023-01-23T03:47:32.249Z,93346.66
2023-01-23T03:49:04.124Z,93350.41
2023-01-23T03:50:35.704Z,93349.59
2023-01-23T03:52:07.480Z,93337.31
2023-01-23T03:53:39.076Z,93348.81
2023-01-23T03:55:10.649Z,93350.97
2023-01-23T03:56:42.665Z,93334.91
2023-01-23T03:58:14.181Z,93348.56
2023-01-23T03:59:46.095Z,93338.19
2023-01-23T04:01:17.679Z,93337.66
2023-01-23T04:02:49.183Z,93340.31
2023-01-23T04:04:20.691Z,93355.56
2023-01-23T04:05:55.497Z,93346.22
2023-01-23T04:07:27.589Z,93325.63
2023-01-23T04:08:59.209Z,93340.13
2023-01-23T04:10:31.146Z,93357.22
2023-01-23T04:12:03.047Z,93351.09
2023-01-23T04:13:34.807Z,93359.09
2023-01-23T04:15:06.699Z,93344.41
2023-01-23T04:16:38.231Z,93349.75
2023-01-23T04:18:09.930Z,93353.22
2023-01-23T04:19:41.449Z,93346.81
2023-01-23T04:21:13.214Z,93356.97
2023-01-23T04:22:44.691Z,93347.56
2023-01-23T04:24:16.798Z,93353.66
2023-01-23T04:25:48.543Z,93350.97
2023-01-23T04:27:20.053Z,93346.41
2023-01-23T04:28:51.593Z,93349.09
2023-01-23T04:30:23.255Z,93345.41
2023-01-23T04:31:54.834Z,93342.22
2023-01-23T04:33:26.321Z,93336.63
2023-01-23T04:34:57.913Z,93350.50
2023-01-23T04:36:29.477Z,93348.34
2023-01-23T04:38:01.032Z,93341.66
2023-01-23T04:39:33.091Z,93335.78
2023-01-23T04:41:05.008Z,93337.13
2023-01-23T04:42:36.731Z,93321.88
2023-01-23T04:44:20.488Z,93338.78
2023-01-23T04:45:52.728Z,93332.91
2023-01-23T04:47:24.361Z,93326.75
2023-01-23T04:48:56.168Z,93342.53
2023-01-23T04:50:27.714Z,93350.34
2023-01-23T04:51:59.536Z,93360.75
2023-01-23T04:53:31.146Z,93361.28
2023-01-23T04:55:03.258Z,93373.34
2023-01-23T04:56:34.836Z,93370.16
2023-01-23T04:58:06.459Z,93391.00
2023-01-23T04:59:38.042Z,93397.97
2023-01-23T05:01:09.834Z,93404.13
2023-01-23T05:02:41.448Z,93394.50
2023-01-23T05:04:12.983Z,93394.50
2023-01-23T05:05:44.703Z,93393.47
2023-01-23T05:07:16.375Z,93391.81
2023-01-23T05:08:47.920Z,93403.84
2023-01-23T05:10:19.682Z,93395.03
2023-01-23T05:11:51.668Z,93393.41
2023-01-23T05:13:23.180Z,93388.56
2023-01-23T05:14:54.673Z,93391.00
2023-01-23T05:16:26.247Z,93382.94
2023-01-23T05:17:57.982Z,93377.34
2023-01-23T05:19:29.621Z,93389.94
2023-01-23T05:21:01.337Z,93376.78
2023-01-23T05:22:33.729Z,93383.19
2023-01-23T05:24:05.445Z,93386.41
2023-01-23T05:25:37.114Z,93381.31
2023-01-23T05:27:09.181Z,93369.53
2023-01-23T05:28:40.752Z,93381.00
2023-01-23T05:30:12.343Z,93373.78
2023-01-23T05:31:43.978Z,93386.06
2023-01-23T05:33:15.570Z,93370.31
2023-01-23T05:34:47.215Z,93377.31
2023-01-23T05:36:18.864Z,93385.34
2023-01-23T05:37:51.688Z,93381.06
2023-01-23T05:39:23.210Z,93365.31
2023-01-23T05:40:54.819Z,93382.72
2023-01-23T05:42:26.423Z,93381.41
2023-01-23T05:43:58.144Z,93385.94
2023-01-23T05:45:29.681Z,93392.34
2023-01-23T05:47:01.242Z,93391.03
2023-01-23T05:48:32.834Z,93386.47
2023-01-23T05:50:06.201Z,93392.91
2023-01-23T05:51:38.269Z,93391.06
2023-01-23T05:53:09.883Z,93405.50
2023-01-23T05:54:41.391Z,93394.00
2023-01-23T05:56:12.987Z,93400.41
2023-01-23T05:57:44.545Z,93399.06
2023-01-23T05:59:16.413Z,93401.50
2023-01-23T06:00:48.162Z,93407.09
2023-01-23T06:02:20.180Z,93407.91
2023-01-23T06:03:52.135Z,93407.91
2023-01-23T06:05:24.048Z,93412.19
2023-01-23T06:06:55.635Z,93415.66
2023-01-23T06:08:27.186Z,93421.00
2023-01-23T06:09:58.834Z,93419.16
2023-01-23T06:11:30.574Z,93423.44
2023-01-23T06:13:02.127Z,93432.00
2023-01-23T06:14:33.875Z,93438.38
2023-01-23T06:16:05.856Z,93456.28
2023-01-23T06:17:38.110Z,93443.19
2023-01-23T06:19:10.772Z,93448.53
2023-01-23T06:20:42.444Z,93433.56
2023-01-23T06:22:14.063Z,93444.53
2023-01-23T06:23:46.208Z,93437.03
2023-01-23T06:25:20.701Z,93431.97
2023-01-23T06:26:52.791Z,93421.28
2023-01-23T06:28:24.819Z,93441.84
2023-01-23T06:29:56.432Z,93432.50
2023-01-23T06:31:30.700Z,93438.38
2023-01-23T06:33:02.364Z,93439.97
2023-01-23T06:34:33.999Z,93438.09
2023-01-23T06:36:05.784Z,93433.03
2023-01-23T06:37:37.439Z,93422.34
2023-01-23T06:39:09.054Z,93422.34
2023-01-23T06:40:40.695Z,93427.94
2023-01-23T06:42:12.350Z,93433.56
2023-01-23T06:43:43.925Z,93433.03
2023-01-23T06:45:15.501Z,93443.19
2023-01-23T06:46:47.348Z,93440.25
2023-01-23T06:48:19.686Z,93434.63
2023-01-23T06:49:51.602Z,93436.25
2023-01-23T06:51:23.620Z,93423.63
2023-01-23T06:52:55.137Z,93435.13
2023-01-23T06:54:26.802Z,93430.59
2023-01-23T06:56:01.784Z,93436.75
2023-01-23T06:57:34.066Z,93430.09
2023-01-23T06:59:06.146Z,93437.00
2023-01-23T07:00:37.779Z,93433.00
2023-01-23T07:02:09.932Z,93443.97
2023-01-23T07:03:42.352Z,93444.75
2023-01-23T07:05:13.956Z,93448.50
2023-01-23T07:06:45.532Z,93459.69
2023-01-23T07:08:17.713Z,93455.69
2023-01-23T07:09:49.829Z,93448.47
2023-01-23T07:11:21.712Z,93452.75
2023-01-23T07:12:53.717Z,93460.25
2023-01-23T07:14:27.293Z,93456.78
2023-01-23T07:15:58.836Z,93451.16
2023-01-23T07:17:30.755Z,93458.38
2023-01-23T07:19:02.744Z,93462.94
2023-01-23T07:20:34.453Z,93451.94
2023-01-23T07:22:06.958Z,93466.66
2023-01-23T07:23:38.526Z,93472.53
2023-01-23T07:25:10.241Z,93473.59
2023-01-23T07:26:41.789Z,93462.09
2023-01-23T07:28:13.426Z,93473.91
2023-01-23T07:29:45.029Z,93496.09
2023-01-23T07:31:16.848Z,93492.63
2023-01-23T07:32:48.827Z,93500.09
2023-01-23T07:34:21.238Z,93502.22
2023-01-23T07:35:53.188Z,93505.16
2023-01-23T07:37:25.521Z,93501.94
2023-01-23T07:38:59.101Z,93501.41
2023-01-23T07:40:31.202Z,93517.22
2023-01-23T07:42:02.865Z,93518.28
2023-01-23T07:43:34.528Z,93515.88
2023-01-23T07:45:06.807Z,93522.56
2023-01-23T07:46:38.761Z,93510.25
2023-01-23T07:48:10.387Z,93523.91
2023-01-23T07:49:42.002Z,93533.53
2023-01-23T07:51:15.782Z,93538.88
2023-01-23T07:52:47.377Z,93523.38
2023-01-23T07:54:19.105Z,93551.44
2023-01-23T07:55:51.259Z,93549.03
2023-01-23T07:57:23.086Z,93548.53
2023-01-23T07:58:57.412Z,93553.84
2023-01-23T08:00:30.429Z,93563.22
2023-01-23T08:02:02.433Z,93575.50
2023-01-23T08:03:34.247Z,93574.69
2023-01-23T08:05:06.299Z,93587.56
2023-01-23T08:06:38.793Z,93587.56
2023-01-23T08:08:14.065Z,93577.66
2023-01-23T08:09:45.769Z,93584.88
2023-01-23T08:11:17.553Z,93599.31
2023-01-23T08:12:49.226Z,93602.50
2023-01-23T08:14:21.545Z,93593.41
2023-01-23T08:15:54.516Z,93600.63
2023-01-23T08:17:26.540Z,93600.63
2023-01-23T08:18:58.198Z,93583.00
2023-01-23T08:20:30.403Z,93597.41
2023-01-23T08:22:02.039Z,93598.22
2023-01-23T08:23:33.987Z,93602.22
2023-01-23T08:25:06.091Z,93599.03
2023-01-23T08:26:37.807Z,93600.38
2023-01-23T08:28:09.565Z,93611.03
2023-01-23T08:29:41.422Z,93595.00
2023-01-23T08:31:13.710Z,93603.53
2023-01-23T08:32:45.789Z,93596.34
2023-01-23T08:34:17.547Z,93596.88
2023-01-23T08:35:52.802Z,93595.81
2023-01-23T08:37:24.968Z,93590.19
2023-01-23T08:38:57.099Z,93589.66
2023-01-23T08:40:28.909Z,93592.91
2023-01-23T08:42:00.586Z,93592.63
2023-01-23T08:43:32.697Z,93594.50
2023-01-23T08:45:05.182Z,93600.09
2023-01-23T08:46:37.472Z,93601.44
2023-01-23T08:48:09.681Z,93603.06
2023-01-23T08:49:41.349Z,93607.31
2023-01-23T08:51:13.542Z,93603.31
2023-01-23T08:52:45.385Z,93608.13
2023-01-23T08:54:17.192Z,93611.88
2023-01-23T08:55:48.732Z,93619.09
2023-01-23T08:57:20.309Z,93618.81
2023-01-23T08:58:52.026Z,93626.53
2023-01-23T09:00:23.801Z,93630.81
2023-01-23T09:01:55.500Z,93621.47
2023-01-23T09:03:27.028Z,93623.88
2023-01-23T09:04:58.658Z,93616.38
2023-01-23T09:06:30.429Z,93626.84
2023-01-23T09:08:02.184Z,93628.97
2023-01-23T09:09:34.047Z,93626.56
2023-01-23T09:11:06.716Z,93629.78
2023-01-23T09:12:39.002Z,93624.97
2023-01-23T09:14:10.719Z,93622.28
2023-01-23T09:15:42.364Z,93618.28
2023-01-23T09:17:13.994Z,93609.72
2023-01-23T09:18:45.596Z,93610.53
2023-01-23T09:20:17.679Z,93617.50
2023-01-23T09:21:49.335Z,93602.78
2023-01-23T09:23:21.035Z,93603.84
2023-01-23T09:24:52.581Z,93613.72
2023-01-23T09:26:24.545Z,93619.09
2023-01-23T09:27:56.219Z,93617.47
2023-01-23T09:29:27.755Z,93627.63
2023-01-23T09:31:02.938Z,93629.75
2023-01-23T09:32:34.603Z,93622.28
2023-01-23T09:34:07.976Z,93613.19
2023-01-23T09:35:39.588Z,93610.53
2023-01-23T09:37:11.241Z,93611.03
2023-01-23T09:38:42.954Z,93614.53
2023-01-23T09:40:17.829Z,93614.00
2023-01-23T09:41:53.502Z,93620.69
2023-01-23T09:43:30.247Z,93630.84
2023-01-23T09:45:03.867Z,93625.75
2023-01-23T09:46:39.984Z,93619.91
2023-01-23T09:48:35.031Z,93608.91
2023-01-23T09:50:07.669Z,93623.34
2023-01-23T09:51:57.685Z,93621.25
2023-01-23T09:53:32.114Z,93608.91
2023-01-23T09:55:04.499Z,93606.75
2023-01-23T09:56:37.028Z,93600.09
2023-01-23T09:58:34.999Z,93608.94
2023-01-23T10:00:18.252Z,93603.03
2023-01-23T10:01:50.050Z,93592.06
2023-01-23T10:03:21.560Z,93595.00
2023-01-23T10:04:53.374Z,93591.22
2023-01-23T10:06:25.490Z,93602.19
2023-01-23T10:08:00.394Z,93601.66
2023-01-23T10:09:36.477Z,93603.28
2023-01-23T10:11:17.897Z,93607.84
2023-01-23T10:13:09.247Z,93600.63
2023-01-23T10:14:52.636Z,93603.56
2023-01-23T10:16:49.869Z,93599.81
2023-01-23T10:18:22.207Z,93601.97
2023-01-23T10:20:10.337Z,93593.94
2023-01-23T10:22:00.554Z,93591.84
2023-01-23T10:23:55.110Z,93584.88
2023-01-23T10:25:27.268Z,93575.25
2023-01-23T10:27:00.833Z,93572.56
2023-01-23T10:28:35.420Z,93580.03
2023-01-23T10:30:21.127Z,93579.25
2023-01-23T10:31:54.442Z,93567.19
2023-01-23T10:33:40.907Z,93559.19
2023-01-23T10:35:12.934Z,93555.69
2023-01-23T10:36:55.709Z,93548.22
2023-01-23T10:38:28.326Z,93546.84
2023-01-23T10:40:00.105Z,93548.44
2023-01-23T10:41:32.035Z,93539.91
2023-01-23T10:43:04.028Z,93541.78
2023-01-23T10:44:35.665Z,93542.28
2023-01-23T10:46:11.626Z,93544.16
2023-01-23T10:47:46.347Z,93537.22
2023-01-23T10:49:29.286Z,93555.94
2023-01-23T10:51:00.980Z,93543.88
2023-01-23T10:52:36.544Z,93532.91
2023-01-23T10:54:29.570Z,93533.97
2023-01-23T10:56:01.608Z,93543.09
2023-01-23T10:57:48.926Z,93544.97
2023-01-23T10:59:21.920Z,93517.94
2023-01-23T11:00:53.458Z,93537.47
2023-01-23T11:02:29.138Z,93537.47
2023-01-23T11:04:18.041Z,93530.78
2023-01-23T11:05:53.449Z,93531.84
2023-01-23T11:07:26.040Z,93527.31
2023-01-23T11:08:58.852Z,93527.31
2023-01-23T11:10:30.467Z,93542.00
2023-01-23T11:12:03.507Z,93536.34
2023-01-23T11:13:35.199Z,93532.59
2023-01-23T11:15:12.865Z,93533.63
2023-01-23T11:16:45.280Z,93545.91
2023-01-23T11:18:49.735Z,93535.97
2023-01-23T11:20:21.412Z,93531.94
2023-01-23T11:21:59.758Z,93532.19
2023-01-23T11:23:31.538Z,93532.44
2023-01-23T11:25:17.704Z,93531.88
2023-01-23T11:26:49.710Z,93536.97
2023-01-23T11:28:27.231Z,93532.66
2023-01-23T11:29:58.828Z,93544.41
2023-01-23T11:31:30.504Z,93543.34
2023-01-23T11:33:04.930Z,93540.69
2023-01-23T11:34:57.469Z,93532.91
2023-01-23T11:36:32.004Z,93540.13
2023-01-23T11:38:04.169Z,93543.34
2023-01-23T11:39:39.059Z,93545.75
2023-01-23T11:41:11.308Z,93532.91
2023-01-23T11:42:43.115Z,93536.69
2023-01-23T11:44:19.139Z,93546.88
2023-01-23T11:46:01.196Z,93543.41
2023-01-23T11:47:48.522Z,93545.00
2023-01-23T11:49:25.231Z,93537.78
2023-01-23T11:51:00.536Z,93530.00
2023-01-23T11:52:35.362Z,93528.69
2023-01-23T11:54:07.212Z,93527.41
2023-01-23T11:55:50.816Z,93519.88
2023-01-23T11:57:25.368Z,93520.66
2023-01-23T11:59:16.963Z,93520.38
2023-01-23T12:01:06.844Z,93515.03
2023-01-23T12:02:48.984Z,93519.03
2023-01-23T12:04:20.747Z,93531.09
2023-01-23T12:05:52.313Z,93524.94
2023-01-23T12:07:24.019Z,93532.41
2023-01-23T12:08:55.747Z,93541.75
2023-01-23T12:10:28.837Z,93526.97
2023-01-23T12:12:00.408Z,93537.41
2023-01-23T12:13:50.896Z,93516.81
2023-01-23T12:15:28.584Z,93516.56
2023-01-23T12:17:02.329Z,93519.78
2023-01-23T12:18:34.500Z,93515.22
2023-01-23T12:20:33.495Z,93513.63
2023-01-23T12:22:09.794Z,93524.59
2023-01-23T12:23:42.598Z,93527.56
2023-01-23T12:25:17.352Z,93523.53
2023-01-23T12:27:02.927Z,93512.75
2023-01-23T12:28:34.763Z,93510.63
2023-01-23T12:30:26.529Z,93513.81
2023-01-23T12:32:08.231Z,93512.41
2023-01-23T12:33:42.735Z,93515.34
2023-01-23T12:35:30.045Z,93523.38
2023-01-23T12:37:19.259Z,93523.38
2023-01-23T12:38:56.808Z,93529.03
2023-01-23T12:40:28.501Z,93523.94
2023-01-23T12:42:04.011Z,93525.53
2023-01-23T12:43:40.604Z,93534.38
2023-01-23T12:45:17.399Z,93533.56
2023-01-23T12:46:55.078Z,93538.06
2023-01-23T12:48:35.684Z,93545.63
2023-01-23T12:50:13.121Z,93534.13
2023-01-23T12:51:46.503Z,93547.25
2023-01-23T12:53:18.977Z,93530.63
2023-01-23T12:54:59.039Z,93531.16
2023-01-23T12:56:31.405Z,93532.47
2023-01-23T12:58:10.301Z,93535.66
2023-01-23T12:59:48.989Z,93541.81
2023-01-23T13:01:23.726Z,93549.00
2023-01-23T13:03:05.229Z,93539.13
2023-01-23T13:04:37.928Z,93545.59
2023-01-23T13:06:18.648Z,93544.34
2023-01-23T13:07:50.383Z,93548.66
2023-01-23T13:09:34.182Z,93548.16
2023-01-23T13:11:40.899Z,93553.78
2023-01-23T13:13:12.597Z,93548.69
2023-01-23T13:15:03.558Z,93541.75
2023-01-23T13:16:36.522Z,93533.38
2023-01-23T13:18:18.997Z,93535.25
2023-01-23T13:20:09.351Z,93544.88
2023-01-23T13:21:59.792Z,93544.91
2023-01-23T13:23:31.380Z,93541.94
2023-01-23T13:25:17.859Z,93543.81
2023-01-23T13:26:49.432Z,93547.25
2023-01-23T13:28:50.613Z,93539.75
2023-01-23T13:30:22.591Z,93542.22
2023-01-23T13:31:57.443Z,93557.50
2023-01-23T13:33:28.993Z,93547.09
2023-01-23T13:35:02.165Z,93555.44
2023-01-23T13:36:34.773Z,93549.56
2023-01-23T13:38:21.511Z,93546.66
2023-01-23T13:40:12.022Z,93539.44
2023-01-23T13:41:44.402Z,93546.94
2023-01-23T13:43:34.776Z,93543.50
2023-01-23T13:45:27.328Z,93547.53
2023-01-23T14:22:01.934Z,93569.88
2023-01-23T14:23:35.725Z,93585.94
2023-01-23T14:25:14.549Z,93579.78
2023-01-23T14:26:48.291Z,93590.72
2023-01-23T14:28:21.070Z,93580.03
2023-01-23T14:29:56.160Z,93593.16
2023-01-23T14:31:28.805Z,93593.41
2023-01-23T14:33:00.743Z,93597.41
2023-01-23T14:34:38.531Z,93599.28
2023-01-23T14:36:16.952Z,93601.44
2023-01-23T14:37:48.778Z,93597.44
2023-01-23T14:39:21.200Z,93598.75
2023-01-23T14:40:52.710Z,93601.44
2023-01-23T14:42:28.733Z,93600.34
2023-01-23T14:44:00.381Z,93609.44
2023-01-23T14:45:33.442Z,93604.09
2023-01-23T14:47:05.739Z,93612.13
2023-01-23T14:48:39.180Z,93609.16
2023-01-23T14:50:12.498Z,93611.88
2023-01-23T14:51:54.324Z,93607.34
2023-01-23T14:53:25.940Z,93597.13
2023-01-23T14:55:03.149Z,93603.28
2023-01-23T14:56:40.046Z,93601.41
2023-01-23T14:58:19.173Z,93610.00
2023-01-23T14:59:51.069Z,93607.31
2023-01-23T15:01:22.789Z,93607.03
2023-01-23T15:02:56.390Z,93600.91
2023-01-23T15:04:29.307Z,93608.13
2023-01-23T15:06:01.162Z,93607.59
2023-01-23T15:07:32.875Z,93598.22
2023-01-23T15:09:05.703Z,93600.09
2023-01-23T15:10:43.033Z,93590.75
2023-01-23T15:12:18.282Z,93599.59
2023-01-23T15:13:50.988Z,93603.84
2023-01-23T15:15:23.404Z,93623.06
2023-01-23T15:17:05.035Z,93619.63
2023-01-23T15:18:37.859Z,93624.41
2023-01-23T15:20:25.601Z,93627.34
2023-01-23T15:22:18.677Z,93630.56
2023-01-23T15:24:00.084Z,93627.09
2023-01-23T15:25:35.445Z,93618.78
2023-01-23T15:27:23.086Z,93623.34
2023-01-23T15:28:58.312Z,93616.09
2023-01-23T15:30:36.217Z,93622.22
2023-01-23T15:32:14.134Z,93612.59
2023-01-23T15:33:47.940Z,93612.34
2023-01-23T15:35:20.427Z,93612.06
2023-01-23T15:36:59.284Z,93614.44
2023-01-23T15:38:31.128Z,93614.19
2023-01-23T15:40:02.952Z,93614.97
2023-01-23T15:41:38.653Z,93616.28
2023-01-23T15:43:15.249Z,93622.94
2023-01-23T15:44:46.762Z,93621.88
2023-01-23T15:46:19.035Z,93613.31
2023-01-23T15:47:50.566Z,93610.09
2023-01-23T15:49:26.126Z,93621.84
2023-01-23T15:50:59.165Z,93622.09
2023-01-23T15:52:31.499Z,93614.09
2023-01-23T15:54:03.606Z,93597.28
2023-01-23T15:55:35.549Z,93594.34
2023-01-23T15:57:08.601Z,93605.03
2023-01-23T15:58:41.110Z,93598.59
2023-01-23T16:00:15.886Z,93610.88
2023-01-23T16:01:47.860Z,93593.81
2023-01-23T16:03:20.220Z,93607.66
2023-01-23T16:04:52.231Z,93622.06
2023-01-23T16:06:24.116Z,93628.50
2023-01-23T16:07:55.927Z,93607.66
2023-01-23T16:09:28.783Z,93619.41
2023-01-23T16:11:00.498Z,93625.00
2023-01-23T16:12:33.157Z,93629.25
2023-01-23T16:14:05.313Z,93630.06
2023-01-23T16:15:40.351Z,93628.72
2023-01-23T16:17:16.999Z,93633.25
2023-01-23T16:18:49.139Z,93631.38
2023-01-23T16:20:25.287Z,93624.44
2023-01-23T16:22:04.503Z,93624.94
2023-01-23T16:23:47.131Z,93624.16
2023-01-23T16:25:41.853Z,93640.69
2023-01-23T16:27:18.249Z,93639.09
2023-01-23T16:28:50.508Z,93639.91
2023-01-23T16:30:22.899Z,93635.88
2023-01-23T16:31:55.393Z,93629.72
2023-01-23T16:33:27.639Z,93616.66
2023-01-23T16:34:59.273Z,93633.97
2023-01-23T16:36:30.899Z,93631.56
2023-01-23T16:38:02.603Z,93638.25
2023-01-23T16:39:40.997Z,93633.16
2023-01-23T16:41:12.568Z,93626.47
2023-01-23T16:42:44.893Z,93640.31
2023-01-23T16:44:17.425Z,93649.38
2023-01-23T16:45:49.055Z,93648.56
2023-01-23T16:47:20.869Z,93649.66
2023-01-23T16:48:54.956Z,93652.59
2023-01-23T16:50:29.415Z,93659.53
2023-01-23T16:52:01.149Z,93656.56
2023-01-23T16:53:33.862Z,93639.50
2023-01-23T16:55:06.036Z,93653.91
2023-01-23T16:56:38.387Z,93663.00
2023-01-23T16:58:13.621Z,93665.66
2023-01-23T16:59:45.244Z,93656.56
2023-01-23T17:01:18.167Z,93656.56
2023-01-23T17:02:53.689Z,93662.47
2023-01-23T17:04:25.378Z,93670.47
2023-01-23T17:05:57.341Z,93671.53
2023-01-23T17:07:31.598Z,93676.34
2023-01-23T17:09:03.242Z,93680.88
2023-01-23T17:10:45.893Z,93677.91
2023-01-23T17:12:19.158Z,93686.94
2023-01-23T17:13:52.895Z,93690.97
2023-01-23T17:15:25.151Z,93688.31
2023-01-23T17:16:58.000Z,93689.13
2023-01-23T17:18:33.303Z,93692.28
2023-01-23T17:20:05.702Z,93701.91
2023-01-23T17:21:38.958Z,93694.44
2023-01-23T17:23:11.835Z,93701.91
2023-01-23T17:24:43.415Z,93693.09
2023-01-23T17:26:18.298Z,93695.50
2023-01-23T17:28:03.590Z,93692.03
2023-01-23T17:29:42.057Z,93695.25
2023-01-23T17:31:17.713Z,93703.81
2023-01-23T17:32:52.960Z,93704.88
2023-01-23T17:34:24.939Z,93707.25
2023-01-23T17:35:56.472Z,93699.78
2023-01-23T17:37:28.255Z,93717.34
2023-01-23T17:39:00.379Z,93706.94
2023-01-23T17:40:32.082Z,93722.13
2023-01-23T17:42:03.871Z,93712.81
2023-01-23T17:43:36.336Z,93719.44
2023-01-23T17:45:12.053Z,93709.56
2023-01-23T17:46:44.672Z,93696.75
2023-01-23T17:48:17.615Z,93700.47
2023-01-23T17:49:54.633Z,93693.22
2023-01-23T17:51:26.648Z,93683.91
2023-01-23T17:52:58.508Z,93704.19
2023-01-23T17:54:30.254Z,93683.09
2023-01-23T17:56:01.927Z,93678.56
2023-01-23T17:57:33.682Z,93687.63
2023-01-23T17:59:05.221Z,93678.56
2023-01-23T18:00:37.682Z,93677.50
2023-01-23T18:02:41.827Z,93661.72
2023-01-23T18:04:15.807Z,93675.84
2023-01-23T18:05:47.579Z,93671.88
2023-01-23T18:07:19.156Z,93680.94
2023-01-23T18:08:50.964Z,93672.38
2023-01-23T18:10:22.678Z,93675.59
2023-01-23T18:11:54.765Z,93657.44
2023-01-23T18:13:29.461Z,93662.22
2023-01-23T18:15:22.001Z,93671.56
2023-01-23T18:16:54.247Z,93672.38
2023-01-23T18:18:33.231Z,93670.50
2023-01-23T18:20:11.673Z,93689.69
2023-01-23T18:21:44.390Z,93699.81
2023-01-23T18:23:16.056Z,93692.63
2023-01-23T18:24:47.858Z,93692.06
2023-01-23T18:26:32.015Z,93703.00
2023-01-23T18:28:05.237Z,93696.56
2023-01-23T18:29:49.640Z,93704.28
2023-01-23T18:31:27.091Z,93696.31
2023-01-23T18:33:13.892Z,93701.88
2023-01-23T18:34:53.777Z,93690.66
2023-01-23T18:36:48.573Z,93689.06
2023-01-23T18:38:20.414Z,93685.06
2023-01-23T18:39:59.279Z,93679.19
2023-01-23T18:41:31.040Z,93703.16
2023-01-23T18:43:29.472Z,93705.03
2023-01-23T18:45:05.524Z,93702.59
2023-01-23T18:46:37.739Z,93702.59
2023-01-23T18:48:24.249Z,93687.41
2023-01-23T18:49:57.258Z,93703.91
2023-01-23T18:51:35.260Z,93697.50
2023-01-23T18:53:17.505Z,93703.06
2023-01-23T18:55:01.805Z,93709.72
2023-01-23T18:56:42.471Z,93705.19
2023-01-23T18:58:37.414Z,93716.69
2023-01-23T19:00:16.858Z,93715.91
2023-01-23T19:01:52.424Z,93719.63
2023-01-23T19:03:28.339Z,93720.16
2023-01-23T19:05:19.458Z,93707.63